createdAt,value
2017-11-07T00:01:53.746Z,83.35
2017-11-07T00:04:22.072Z,83.34
2017-11-07T00:06:50.380Z,83.33
2017-11-07T00:09:18.691Z,83.24
2017-11-07T00:11:47.772Z,83.25
2017-11-07T00:14:16.066Z,83.18
2017-11-07T00:16:44.356Z,83.17
2017-11-07T00:19:12.646Z,83.15
2017-11-07T00:21:40.966Z,83.09
2017-11-07T00:24:09.287Z,83.12
2017-11-07T00:26:37.602Z,83.10
2017-11-07T00:29:06.678Z,82.96
2017-11-07T00:31:35.744Z,82.97
2017-11-07T00:34:04.052Z,82.97
2017-11-07T00:36:32.344Z,83.06
2017-11-07T00:39:00.649Z,83.12
2017-11-07T00:41:29.731Z,83.10
2017-11-07T00:43:58.796Z,83.09
2017-11-07T00:46:27.120Z,83.15
2017-11-07T00:48:56.173Z,83.20
2017-11-07T00:51:24.463Z,83.31
2017-11-07T00:53:52.774Z,83.38
2017-11-07T00:56:21.852Z,83.44
2017-11-07T00:58:50.195Z,83.53
2017-11-07T01:01:18.483Z,83.57
2017-11-07T01:03:46.792Z,83.71
2017-11-07T01:06:15.084Z,83.76
2017-11-07T01:08:43.420Z,83.72
2017-11-07T01:11:11.758Z,83.65
2017-11-07T01:13:41.572Z,83.96
2017-11-07T01:16:09.862Z,83.89
2017-11-07T01:18:38.169Z,83.79
2017-11-07T01:21:06.478Z,83.75
2017-11-07T01:23:34.846Z,83.74
2017-11-07T01:26:03.136Z,83.66
2017-11-07T01:28:31.427Z,83.60
2017-11-07T01:30:59.738Z,83.74
2017-11-07T01:33:28.033Z,83.76
2017-11-07T01:35:57.199Z,83.81
2017-11-07T01:38:25.624Z,83.77
2017-11-07T01:40:54.786Z,83.78
2017-11-07T01:43:23.105Z,83.67
2017-11-07T01:45:51.407Z,83.78
2017-11-07T01:48:20.494Z,83.79
2017-11-07T01:50:49.573Z,83.82
2017-11-07T01:53:17.870Z,83.82
2017-11-07T01:55:46.969Z,83.86
2017-11-07T01:58:15.254Z,83.95
2017-11-07T02:00:44.334Z,84.04
2017-11-07T02:03:14.147Z,84.06
2017-11-07T02:05:42.445Z,84.02
2017-11-07T02:08:11.506Z,83.94
2017-11-07T02:10:40.095Z,83.91
2017-11-07T02:13:08.536Z,83.93
2017-11-07T02:15:37.598Z,83.98
2017-11-07T02:18:06.706Z,84.03
2017-11-07T02:20:35.759Z,84.03
2017-11-07T02:23:04.059Z,84.06
2017-11-07T02:25:32.356Z,84.18
2017-11-07T02:28:00.652Z,84.23
2017-11-07T02:30:29.725Z,84.35
2017-11-07T02:32:58.074Z,84.26
2017-11-07T02:35:26.373Z,84.23
2017-11-07T02:37:54.664Z,84.30
2017-11-07T02:40:22.985Z,84.35
2017-11-07T02:42:52.082Z,84.38
2017-11-07T02:45:21.215Z,84.40
2017-11-07T02:47:49.516Z,84.43
2017-11-07T02:50:17.826Z,84.46
2017-11-07T02:52:46.116Z,84.48
2017-11-07T02:55:14.421Z,84.48
2017-11-07T02:57:43.504Z,84.55
2017-11-07T03:00:11.789Z,84.60
2017-11-07T03:02:40.849Z,84.61
2017-11-07T03:05:09.170Z,84.56
2017-11-07T03:07:38.335Z,84.61
2017-11-07T03:10:06.724Z,84.68
2017-11-07T03:12:35.109Z,84.74
2017-11-07T03:15:03.411Z,84.87
2017-11-07T03:17:33.241Z,84.90
2017-11-07T03:20:02.293Z,84.97
2017-11-07T03:22:30.581Z,84.99
2017-11-07T03:24:58.955Z,84.98
2017-11-07T03:27:27.515Z,85.07
2017-11-07T03:29:55.810Z,85.10
2017-11-07T03:32:24.100Z,85.12
2017-11-07T03:34:52.389Z,85.11
2017-11-07T03:37:20.677Z,85.13
2017-11-07T03:39:49.022Z,85.20
2017-11-07T03:42:17.326Z,85.27
2017-11-07T03:44:45.609Z,85.33
2017-11-07T03:47:13.944Z,85.44
2017-11-07T03:49:42.987Z,85.53
2017-11-07T03:52:12.081Z,85.42
2017-11-07T03:54:40.375Z,85.41
2017-11-07T03:57:08.685Z,85.48
2017-11-07T03:59:36.967Z,85.50
2017-11-07T04:02:05.267Z,85.53
2017-11-07T04:04:33.584Z,85.61
2017-11-07T04:07:01.982Z,85.64
2017-11-07T04:09:30.295Z,85.64
2017-11-07T04:11:59.394Z,85.70
2017-11-07T04:14:28.443Z,85.80
2017-11-07T04:16:57.399Z,85.94
2017-11-07T04:19:26.461Z,86.05
2017-11-07T04:21:54.811Z,86.10
2017-11-07T04:24:23.212Z,86.22
2017-11-07T04:26:51.519Z,86.33
2017-11-07T04:29:19.821Z,86.34
2017-11-07T04:31:48.900Z,86.34
2017-11-07T04:34:17.180Z,86.33
2017-11-07T04:36:45.484Z,86.39
2017-11-07T04:39:13.830Z,86.49
2017-11-07T04:41:42.137Z,86.57
2017-11-07T04:44:10.431Z,86.58
2017-11-07T04:46:39.494Z,86.58
2017-11-07T04:49:07.867Z,86.62
2017-11-07T04:51:36.168Z,86.70
2017-11-07T04:54:04.490Z,86.77
2017-11-07T04:56:32.927Z,86.86
2017-11-07T04:59:02.204Z,86.94
2017-11-07T05:01:30.523Z,86.96
2017-11-07T05:03:58.841Z,87.02
2017-11-07T05:06:27.913Z,87.06
2017-11-07T05:08:57.097Z,87.08
2017-11-07T05:11:25.395Z,87.20
2017-11-07T05:13:53.695Z,87.30
2017-11-07T05:16:22.824Z,87.39
2017-11-07T05:18:51.952Z,87.48
2017-11-07T05:21:20.478Z,87.52
2017-11-07T05:23:48.774Z,87.61
2017-11-07T05:26:17.099Z,87.72
2017-11-07T05:28:45.415Z,87.73
2017-11-07T05:31:14.477Z,87.71
2017-11-07T05:33:42.771Z,87.77
2017-11-07T05:36:11.077Z,87.83
2017-11-07T05:38:40.243Z,87.90
2017-11-07T05:41:08.543Z,87.95
2017-11-07T05:43:36.904Z,87.99
2017-11-07T05:46:05.199Z,88.05
2017-11-07T05:48:33.549Z,88.07
2017-11-07T05:51:02.011Z,88.06
2017-11-07T05:53:31.075Z,88.07
2017-11-07T05:55:59.358Z,88.12
2017-11-07T05:58:27.718Z,88.22
2017-11-07T06:00:56.035Z,88.22
2017-11-07T06:03:25.103Z,88.23
2017-11-07T06:05:53.470Z,88.33
2017-11-07T06:08:21.805Z,88.38
2017-11-07T06:10:50.113Z,88.38
2017-11-07T06:13:18.411Z,88.40
2017-11-07T06:15:46.711Z,88.39
2017-11-07T06:18:15.025Z,88.41
2017-11-07T06:20:44.106Z,88.45
2017-11-07T06:23:12.414Z,88.51
2017-11-07T06:25:41.553Z,88.60
2017-11-07T06:28:09.847Z,88.56
2017-11-07T06:30:38.175Z,88.53
2017-11-07T06:33:07.438Z,88.54
2017-11-07T06:35:35.741Z,88.63
2017-11-07T06:38:04.039Z,88.79
2017-11-07T06:40:33.108Z,88.85
2017-11-07T06:43:01.439Z,88.84
2017-11-07T06:45:29.751Z,88.88
2017-11-07T06:47:58.066Z,88.95
2017-11-07T06:50:27.877Z,89.02
2017-11-07T06:52:56.201Z,89.02
2017-11-07T06:55:24.529Z,89.07
2017-11-07T06:57:52.849Z,89.11
2017-11-07T07:00:21.895Z,89.15
2017-11-07T07:02:50.226Z,89.22
2017-11-07T07:05:19.320Z,89.27
2017-11-07T07:07:48.380Z,89.23
2017-11-07T07:10:16.766Z,89.28
2017-11-07T07:12:45.094Z,89.36
2017-11-07T07:15:14.435Z,89.44
2017-11-07T07:17:42.754Z,89.45
2017-11-07T07:20:11.065Z,89.42
2017-11-07T07:22:40.214Z,89.44
2017-11-07T07:25:08.602Z,89.50
2017-11-07T07:27:36.920Z,89.52
2017-11-07T07:30:05.989Z,89.54
2017-11-07T07:32:34.316Z,89.57
2017-11-07T07:35:03.374Z,89.58
2017-11-07T07:37:31.731Z,89.62
2017-11-07T07:40:00.027Z,89.61
2017-11-07T07:42:28.315Z,89.51
2017-11-07T07:44:56.634Z,89.47
2017-11-07T07:47:25.813Z,89.41
2017-11-07T07:49:54.137Z,89.46
2017-11-07T07:52:23.023Z,89.51
2017-11-07T07:54:52.122Z,89.43
2017-11-07T07:57:20.433Z,89.37
2017-11-07T07:59:48.748Z,89.34
2017-11-07T08:02:17.080Z,89.24
2017-11-07T08:04:46.249Z,89.16
2017-11-07T08:07:15.326Z,89.09
2017-11-07T08:09:43.695Z,89.01
2017-11-07T08:12:11.996Z,88.92
2017-11-07T08:14:40.333Z,88.82
2017-11-07T08:17:08.619Z,88.76
2017-11-07T08:19:36.918Z,88.67
2017-11-07T08:22:05.277Z,88.50
2017-11-07T08:24:33.740Z,88.43
2017-11-07T08:27:02.812Z,88.30
2017-11-07T08:29:31.106Z,88.12
2017-11-07T08:32:00.172Z,87.88
2017-11-07T08:34:28.493Z,87.74
2017-11-07T08:36:57.558Z,87.58
2017-11-07T08:39:25.861Z,87.39
2017-11-07T08:41:54.190Z,87.22
2017-11-07T08:44:22.485Z,87.04
2017-11-07T08:46:51.000Z,86.85
2017-11-07T08:49:20.068Z,86.74
2017-11-07T08:51:48.377Z,86.57
2017-11-07T08:54:17.460Z,86.56
2017-11-07T08:56:45.745Z,86.38
2017-11-07T08:59:14.048Z,86.15
2017-11-07T09:01:42.373Z,85.89
2017-11-07T09:04:10.756Z,85.45
2017-11-07T09:06:39.070Z,85.20
2017-11-07T09:09:07.376Z,84.95
2017-11-07T09:11:35.741Z,84.82
2017-11-07T09:14:04.082Z,84.74
2017-11-07T09:16:32.382Z,84.59
2017-11-07T09:19:00.670Z,84.29
2017-11-07T09:21:28.982Z,84.15
2017-11-07T09:23:58.058Z,83.89
2017-11-07T09:26:26.371Z,83.57
2017-11-07T09:28:54.668Z,83.74
2017-11-07T09:31:23.756Z,83.59
2017-11-07T09:33:52.833Z,83.37
2017-11-07T09:36:21.134Z,83.17
2017-11-07T09:38:49.482Z,82.98
2017-11-07T09:41:17.775Z,82.85
2017-11-07T09:43:46.064Z,82.64
2017-11-07T09:46:14.384Z,82.32
2017-11-07T09:48:42.682Z,81.98
2017-11-07T09:51:10.970Z,82.26
2017-11-07T09:53:39.293Z,81.99
2017-11-07T09:56:07.592Z,81.79
2017-11-07T09:58:36.661Z,81.74
2017-11-07T10:01:04.960Z,81.33
2017-11-07T10:03:33.283Z,80.95
2017-11-07T10:06:01.575Z,80.82
2017-11-07T10:08:29.905Z,80.58
2017-11-07T10:10:58.211Z,80.93
2017-11-07T10:13:27.336Z,80.78
2017-11-07T10:15:55.644Z,80.97
2017-11-07T10:18:23.950Z,80.29
2017-11-07T10:20:52.309Z,79.82
2017-11-07T10:23:20.641Z,79.34
2017-11-07T10:25:48.948Z,78.82
2017-11-07T10:28:17.241Z,78.83
2017-11-07T10:30:45.553Z,78.58
2017-11-07T10:33:13.855Z,78.01
2017-11-07T10:35:42.913Z,77.69
2017-11-07T10:38:11.221Z,77.46
2017-11-07T10:40:39.510Z,76.83
2017-11-07T10:43:08.579Z,76.43
2017-11-07T10:45:36.902Z,76.42
2017-11-07T10:48:05.205Z,76.87
2017-11-07T10:50:33.510Z,76.69
2017-11-07T10:53:01.862Z,75.79
2017-11-07T10:55:30.288Z,75.08
2017-11-07T10:57:58.598Z,75.14
2017-11-07T11:00:27.684Z,75.30
2017-11-07T11:02:55.990Z,74.53
2017-11-07T11:05:25.066Z,73.46
2017-11-07T11:07:54.240Z,73.40
2017-11-07T11:10:22.556Z,72.86
2017-11-07T11:12:51.648Z,72.66
2017-11-07T11:15:19.957Z,72.72
2017-11-07T11:17:48.277Z,73.92
2017-11-07T11:20:16.602Z,71.92
2017-11-07T11:22:45.714Z,71.59
2017-11-07T11:25:14.272Z,71.22
2017-11-07T11:27:42.570Z,70.83
2017-11-07T11:30:11.662Z,70.21
2017-11-07T11:32:39.961Z,70.31
2017-11-07T11:35:09.050Z,69.86
2017-11-07T11:37:38.140Z,69.27
2017-11-07T11:40:06.464Z,69.11
2017-11-07T11:42:34.794Z,68.91
2017-11-07T11:45:03.114Z,68.47
2017-11-07T11:47:31.420Z,68.17
2017-11-07T11:49:59.753Z,67.93
2017-11-07T11:52:28.835Z,67.71
2017-11-07T11:54:57.203Z,67.45
2017-11-07T11:57:25.495Z,67.58
2017-11-07T11:59:54.032Z,67.24
2017-11-07T12:02:22.333Z,67.13
2017-11-07T12:04:50.732Z,66.48
2017-11-07T12:07:19.077Z,65.88
2017-11-07T12:09:47.380Z,65.88
2017-11-07T12:12:15.704Z,65.68
2017-11-07T12:14:44.000Z,65.38
2017-11-07T12:17:13.064Z,65.19
2017-11-07T12:19:41.385Z,65.25
2017-11-07T12:22:10.501Z,64.97
2017-11-07T12:24:38.821Z,64.58
2017-11-07T12:27:07.118Z,64.06
2017-11-07T12:29:35.429Z,63.87
2017-11-07T12:32:04.647Z,63.74
2017-11-07T12:34:32.959Z,64.08
2017-11-07T12:37:01.616Z,63.84
2017-11-07T12:39:29.916Z,63.54
2017-11-07T12:41:58.319Z,62.77
2017-11-07T12:44:26.657Z,62.18
2017-11-07T12:46:54.968Z,62.66
2017-11-07T12:49:23.304Z,62.14
2017-11-07T12:51:59.784Z,62.07
2017-11-07T12:54:28.093Z,61.76
2017-11-07T12:56:56.394Z,61.54
2017-11-07T12:59:24.715Z,61.57
2017-11-07T13:01:53.824Z,61.18
2017-11-07T13:04:22.940Z,61.37
2017-11-07T13:06:51.256Z,61.30
2017-11-07T13:09:19.579Z,60.81
2017-11-07T13:11:48.681Z,60.46
2017-11-07T13:14:17.765Z,60.30
2017-11-07T13:16:46.066Z,59.82
2017-11-07T13:19:14.394Z,59.92
2017-11-07T13:21:42.695Z,59.78
2017-11-07T13:24:10.993Z,59.49
2017-11-07T13:26:39.310Z,59.23
2017-11-07T13:29:07.615Z,58.89
2017-11-07T13:31:35.927Z,58.59
2017-11-07T13:34:04.224Z,58.70
2017-11-07T13:36:33.394Z,58.84
2017-11-07T13:39:01.696Z,58.37
2017-11-07T13:41:29.997Z,58.14
2017-11-07T13:43:59.077Z,57.89
2017-11-07T13:46:27.376Z,57.34
2017-11-07T13:48:55.691Z,57.65
2017-11-07T13:51:24.007Z,57.77
2017-11-07T13:53:52.334Z,58.30
2017-11-07T13:56:20.639Z,58.65
2017-11-07T13:58:48.963Z,58.48
2017-11-07T14:01:18.085Z,57.88
2017-11-07T14:03:47.159Z,56.81
2017-11-07T14:06:15.469Z,56.33
2017-11-07T14:08:43.764Z,57.21
2017-11-07T14:11:12.083Z,57.85
2017-11-07T14:13:40.457Z,57.95
2017-11-07T14:16:09.196Z,56.48
2017-11-07T14:18:38.273Z,55.98
2017-11-07T14:21:06.584Z,55.50
2017-11-07T14:23:34.902Z,55.40
2017-11-07T14:26:03.194Z,55.69
2017-11-07T14:28:31.515Z,55.48
2017-11-07T14:31:00.613Z,55.32
2017-11-07T14:33:29.674Z,55.34
2017-11-07T14:35:57.981Z,55.92
2017-11-07T14:38:26.304Z,56.07
2017-11-07T14:40:54.646Z,56.60
2017-11-07T14:43:22.957Z,56.37
2017-11-07T14:45:51.263Z,56.10
2017-11-07T14:48:19.565Z,56.16
2017-11-07T14:50:47.860Z,55.76
2017-11-07T14:53:16.157Z,55.92
2017-11-07T14:55:45.223Z,55.91
2017-11-07T14:58:13.626Z,55.80
2017-11-07T15:00:41.935Z,55.27
2017-11-07T15:03:11.396Z,55.49
2017-11-07T15:05:39.713Z,55.65
2017-11-07T15:08:08.814Z,55.80
2017-11-07T15:10:37.889Z,55.53
2017-11-07T15:13:06.198Z,55.47
2017-11-07T15:15:34.506Z,55.22
2017-11-07T15:18:02.807Z,55.36
2017-11-07T15:20:31.119Z,55.58
2017-11-07T15:22:59.422Z,55.27
2017-11-07T15:25:28.549Z,55.33
2017-11-07T15:27:56.869Z,55.47
2017-11-07T15:30:25.164Z,55.74
2017-11-07T15:32:55.006Z,56.22
2017-11-07T15:35:24.105Z,56.67
2017-11-07T15:37:53.227Z,56.46
2017-11-07T15:40:21.536Z,56.67
2017-11-07T15:42:49.915Z,56.63
2017-11-07T15:45:18.218Z,56.80
2017-11-07T15:47:46.581Z,57.27
2017-11-07T15:50:14.899Z,57.17
2017-11-07T15:52:43.209Z,57.20
2017-11-07T15:55:11.502Z,57.23
2017-11-07T15:57:39.889Z,57.78
2017-11-07T16:00:08.960Z,58.57
2017-11-07T16:02:38.048Z,59.17
2017-11-07T16:05:06.352Z,59.42
2017-11-07T16:07:34.648Z,59.95
2017-11-07T16:10:02.960Z,60.23
2017-11-07T16:12:31.254Z,60.54
2017-11-07T16:14:59.594Z,61.20
2017-11-07T16:17:27.919Z,61.66
2017-11-07T16:19:56.219Z,62.08
2017-11-07T16:22:24.626Z,62.45
2017-11-07T16:24:52.928Z,62.57
2017-11-07T16:27:21.300Z,62.91
2017-11-07T16:29:49.598Z,63.25
2017-11-07T16:32:17.899Z,63.39
2017-11-07T16:34:46.211Z,64.05
2017-11-07T16:37:15.316Z,64.52
2017-11-07T16:39:44.385Z,64.78
2017-11-07T16:42:12.722Z,65.02
2017-11-07T16:44:41.108Z,65.45
2017-11-07T16:47:09.494Z,65.73
2017-11-07T16:49:37.783Z,65.99
2017-11-07T16:52:06.162Z,66.30
2017-11-07T16:54:34.461Z,66.27
2017-11-07T16:57:02.744Z,66.37
2017-11-07T16:59:31.059Z,66.71
2017-11-07T17:01:59.379Z,66.96
2017-11-07T17:04:27.663Z,67.18
2017-11-07T17:06:55.977Z,67.39
2017-11-07T17:09:24.269Z,67.49
2017-11-07T17:11:52.575Z,67.85
2017-11-07T17:14:22.677Z,68.39
2017-11-07T17:16:51.009Z,68.64
2017-11-07T17:19:19.298Z,68.80
2017-11-07T17:21:47.600Z,68.85
2017-11-07T17:24:15.895Z,69.11
2017-11-07T17:26:44.191Z,69.34
2017-11-07T17:29:13.260Z,69.66
2017-11-07T17:31:41.548Z,70.13
2017-11-07T17:34:09.855Z,70.61
2017-11-07T17:36:38.158Z,70.85
2017-11-07T17:39:07.210Z,71.30
2017-11-07T17:41:35.511Z,71.57
2017-11-07T17:44:03.798Z,71.76
2017-11-07T17:46:32.091Z,72.13
2017-11-07T17:49:01.166Z,72.40
2017-11-07T17:51:29.459Z,73.79
2017-11-07T17:53:58.555Z,73.57
2017-11-07T17:56:26.857Z,73.61
2017-11-07T17:58:56.148Z,75.48
2017-11-07T18:01:24.502Z,75.14
2017-11-07T18:03:52.817Z,74.68
2017-11-07T18:06:21.874Z,74.64
2017-11-07T18:08:50.171Z,74.61
2017-11-07T18:11:18.473Z,74.53
2017-11-07T18:13:46.780Z,74.75
2017-11-07T18:16:15.146Z,74.91
2017-11-07T18:18:44.239Z,75.11
2017-11-07T18:21:13.326Z,75.21
2017-11-07T18:23:41.616Z,75.24
2017-11-07T18:26:09.909Z,75.42
2017-11-07T18:28:38.973Z,75.56
2017-11-07T18:31:07.260Z,75.74
2017-11-07T18:33:35.568Z,75.88
2017-11-07T18:36:04.717Z,76.08
2017-11-07T18:38:33.024Z,76.24
2017-11-07T18:41:01.323Z,76.57
2017-11-07T18:43:29.636Z,76.80
2017-11-07T18:45:57.949Z,76.98
2017-11-07T18:48:26.326Z,77.19
2017-11-07T18:50:54.621Z,77.42
2017-11-07T18:53:22.931Z,77.57
2017-11-07T18:55:52.000Z,77.77
2017-11-07T18:58:20.291Z,77.92
2017-11-07T19:00:49.351Z,78.01
2017-11-07T19:03:17.652Z,78.06
2017-11-07T19:05:45.973Z,78.10
2017-11-07T19:08:15.049Z,78.28
2017-11-07T19:10:43.380Z,78.29
2017-11-07T19:13:11.645Z,78.41
2017-11-07T19:15:39.932Z,78.43
2017-11-07T19:18:08.203Z,78.40
2017-11-07T19:20:37.294Z,78.49
2017-11-07T19:23:05.606Z,78.48
2017-11-07T19:25:33.891Z,78.44
2017-11-07T19:28:02.205Z,78.42
2017-11-07T19:30:30.497Z,78.52
2017-11-07T19:32:58.788Z,78.62
2017-11-07T19:35:27.098Z,78.75
2017-11-07T19:37:55.407Z,78.94
2017-11-07T19:40:23.707Z,78.92
2017-11-07T19:42:52.045Z,78.95
2017-11-07T19:45:20.348Z,78.88
2017-11-07T19:47:48.640Z,78.87
2017-11-07T19:50:16.932Z,78.92
2017-11-07T19:52:45.241Z,78.91
2017-11-07T19:55:14.320Z,78.79
2017-11-07T19:57:42.759Z,78.69
2017-11-07T20:00:11.106Z,78.80
2017-11-07T20:02:39.453Z,79.03
2017-11-07T20:05:07.947Z,79.07
2017-11-07T20:07:36.253Z,79.01
2017-11-07T20:10:05.331Z,79.08
2017-11-07T20:12:33.639Z,79.15
2017-11-07T20:15:01.987Z,79.27
2017-11-07T20:17:30.309Z,79.44
2017-11-07T20:19:59.376Z,79.48
2017-11-07T20:22:27.673Z,79.57
2017-11-07T20:24:55.969Z,79.63
2017-11-07T20:27:25.031Z,79.54
2017-11-07T20:29:53.357Z,79.58
2017-11-07T20:32:22.444Z,79.56
2017-11-07T20:34:51.524Z,79.51
2017-11-07T20:37:19.820Z,79.53
2017-11-07T20:39:48.141Z,79.57
2017-11-07T20:42:16.429Z,79.70
2017-11-07T20:44:44.725Z,79.90
2017-11-07T20:47:13.032Z,80.01
2017-11-07T20:49:41.333Z,80.05
2017-11-07T20:52:10.392Z,80.19
2017-11-07T20:54:38.690Z,80.21
2017-11-07T20:57:06.996Z,80.29
2017-11-07T20:59:36.068Z,80.38
2017-11-07T21:02:04.368Z,80.39
2017-11-07T21:04:32.665Z,80.50
2017-11-07T21:07:01.744Z,80.61
2017-11-07T21:09:30.044Z,80.68
2017-11-07T21:11:59.105Z,80.67
2017-11-07T21:14:27.413Z,80.76
2017-11-07T21:16:56.477Z,80.77
2017-11-07T21:19:24.757Z,80.70
2017-11-07T21:21:53.137Z,80.68
2017-11-07T21:24:21.454Z,80.76
2017-11-07T21:26:49.746Z,80.62
2017-11-07T21:29:18.840Z,80.70
2017-11-07T21:31:47.163Z,80.66
2017-11-07T21:34:20.917Z,80.66
2017-11-07T21:36:49.220Z,80.84
2017-11-07T21:39:18.261Z,80.89
2017-11-07T21:41:46.554Z,80.94
2017-11-07T21:44:14.867Z,81.07
2017-11-07T21:46:43.165Z,81.14
2017-11-07T21:49:11.462Z,81.17
2017-11-07T21:51:39.750Z,81.18
2017-11-07T21:54:08.047Z,81.32
2017-11-07T21:56:36.350Z,81.39
2017-11-07T21:59:04.663Z,81.32
2017-11-07T22:01:33.828Z,81.34
2017-11-07T22:04:02.135Z,81.36
2017-11-07T22:06:30.425Z,81.39
2017-11-07T22:08:59.618Z,81.57
2017-11-07T22:11:27.981Z,81.58
2017-11-07T22:13:56.288Z,81.56
2017-11-07T22:16:25.358Z,81.50
2017-11-07T22:18:53.655Z,81.50
2017-11-07T22:21:21.960Z,81.46
2017-11-07T22:23:51.010Z,81.41
2017-11-07T22:26:19.323Z,81.50
2017-11-07T22:28:47.628Z,81.60
2017-11-07T22:31:15.916Z,81.71
2017-11-07T22:33:44.209Z,81.78
2017-11-07T22:36:12.497Z,81.74
2017-11-07T22:38:40.802Z,81.79
2017-11-07T22:41:09.084Z,81.99
2017-11-07T22:43:37.378Z,82.13
2017-11-07T22:46:05.681Z,82.07
2017-11-07T22:48:34.756Z,82.08
2017-11-07T22:51:03.057Z,82.31
2017-11-07T22:53:31.345Z,82.63
2017-11-07T22:56:00.401Z,82.80
2017-11-07T22:58:29.428Z,82.81
2017-11-07T23:00:57.755Z,82.86
2017-11-07T23:03:26.050Z,82.68
2017-11-07T23:05:54.417Z,82.73
2017-11-07T23:08:22.717Z,82.71
2017-11-07T23:10:51.007Z,82.64
2017-11-07T23:13:20.248Z,82.75
2017-11-07T23:15:49.297Z,82.73
2017-11-07T23:18:17.598Z,82.67
2017-11-07T23:20:45.878Z,82.72
2017-11-07T23:23:14.183Z,82.74
2017-11-07T23:25:42.482Z,82.65
2017-11-07T23:28:11.559Z,82.51
2017-11-07T23:30:39.867Z,82.44
2017-11-07T23:33:08.925Z,82.62
2017-11-07T23:35:37.239Z,82.74
2017-11-07T23:38:06.305Z,82.86
2017-11-07T23:40:34.615Z,82.91
2017-11-07T23:43:03.684Z,83.05
2017-11-07T23:45:31.975Z,83.22
2017-11-07T23:48:00.295Z,83.45
2017-11-07T23:50:28.584Z,83.72
2017-11-07T23:52:56.885Z,83.89
2017-11-07T23:55:25.195Z,84.14
2017-11-07T23:57:53.479Z,84.25
